Time;durP1;ratioP1;P1;durP2;ratioP2;P2;SDS_P1;SDS_P2;PMS_P1;PMS_P2;Temp;Humidity;BMP_temperature;BMP_pressure;BME280_temperature;BME280_humidity;BME280_pressure;Samples;Min_cycle;Max_cycle;Signal;HPM_P1;HPM_P2
2021/04/29 01:29:36;;;;;;;;;;;;;;;;;;;;;
2021/04/29 02:30:37;;;;;;;8.65;6.10;;;12.90;68.30;;;;;;6103777;23;20683;-92
2021/04/29 03:58:02;;;;;;;13.43;8.65;;;12.60;90.40;;;;;;6134843;23;20009;-95
2021/04/29 04:03:26;;;;;;;16.48;11.38;;;12.50;91.30;;;;;;6060621;23;20022;-95
2021/04/29 04:05:51;;;;;;;16.23;11.70;;;12.50;91.40;;;;;;6107427;23;20085;-95
2021/04/29 04:09:05;;;;;;;15.25;10.25;;;12.50;91.70;;;;;;6134216;23;20149;-96
2021/04/29 04:18:52;;;;;;;15.77;11.15;;;12.50;92.30;;;;;;6134249;23;20001;-96
2021/04/29 04:21:18;;;;;;;15.13;10.23;;;12.50;92.20;;;;;;6133507;23;20034;-95
2021/04/29 04:26:55;;;;;;;15.98;10.43;;;12.50;92.30;;;;;;6102790;23;20016;-96
2021/04/29 04:29:23;;;;;;;16.67;10.40;;;12.50;92.20;;;;;;6133218;23;20002;-96
2021/04/29 04:35:04;;;;;;;15.90;11.30;;;12.50;92.30;;;;;;6133085;23;20065;-96
2021/04/29 04:41:28;;;;;;;16.13;11.52;;;12.40;92.50;;;;;;6045564;23;20610;-93
2021/04/29 04:47:27;;;;;;;15.43;10.55;;;12.30;92.80;;;;;;5987709;23;20094;-94
2021/04/29 04:50:36;;;;;;;14.02;9.55;;;12.30;92.60;;;;;;6020197;23;20007;-95
2021/04/29 04:53:17;;;;;;;19.45;11.30;;;12.20;92.80;;;;;;6015215;23;20196;-96
2021/04/29 04:59:30;;;;;;;13.77;10.27;;;12.20;93.10;;;;;;6121537;23;20014;-95
2021/04/29 05:02:22;;;;;;;15.35;11.00;;;12.10;93.30;;;;;;6132884;23;20140;-94
2021/04/29 05:05:11;;;;;;;;;;;;;;;;;;;;;
2021/04/29 05:08:06;;;;;;;16.63;11.00;;;12.10;93.70;;;;;;6132313;23;20038;-95
2021/04/29 05:10:50;;;;;;;14.02;10.20;;;12.10;93.80;;;;;;6132671;23;20006;-94
2021/04/29 05:13:55;;;;;;;16.95;11.98;;;12.10;94.00;;;;;;6131842;23;20346;-95
2021/04/29 05:16:55;;;;;;;;;;;;;;;;;;;;;
2021/04/29 05:19:44;;;;;;;20.20;11.95;;;12.20;94.20;;;;;;6132855;23;20367;-94
2021/04/29 05:23:00;;;;;;;17.45;12.82;;;12.20;94.30;;;;;;6132270;23;20006;-94
2021/04/29 05:25:26;;;;;;;17.15;12.13;;;12.20;94.50;;;;;;6101858;23;20010;-94
2021/04/29 05:28:29;;;;;;;;;;;;;;;;;;;;;
2021/04/29 05:31:17;;;;;;;14.77;10.93;;;12.20;94.80;;;;;;6133318;23;20021;-95
2021/04/29 05:33:43;;;;;;;16.23;11.52;;;12.20;95.00;;;;;;6132355;23;20017;-93
2021/04/29 05:36:08;;;;;;;14.15;10.35;;;12.30;95.00;;;;;;6132188;23;20010;-94
2021/04/29 05:39:09;;;;;;;15.13;11.30;;;12.30;95.10;;;;;;6131468;23;20013;-93
2021/04/29 05:41:34;;;;;;;14.48;10.45;;;12.30;95.10;;;;;;6132147;23;20006;-94
2021/04/29 05:44:00;;;;;;;13.85;10.43;;;12.40;95.10;;;;;;6131948;23;20017;-93
2021/04/29 05:46:26;;;;;;;18.88;10.82;;;12.40;95.10;;;;;;6131715;23;20017;-93
2021/04/29 05:48:51;;;;;;;16.98;10.75;;;12.50;95.10;;;;;;6131160;23;20405;-94
2021/04/29 05:51:17;;;;;;;14.18;9.40;;;12.60;95.10;;;;;;6131797;23;20010;-93
2021/04/29 05:53:42;;;;;;;14.10;10.63;;;12.70;95.10;;;;;;6132465;23;20068;-93
2021/04/29 05:56:08;;;;;;;15.50;9.02;;;12.80;95.00;;;;;;6131635;23;20084;-92
2021/04/29 05:58:34;;;;;;;12.70;9.32;;;12.80;94.80;;;;;;6142005;23;20010;-94
2021/04/29 06:00:59;;;;;;;13.38;9.95;;;12.90;94.80;;;;;;6131642;23;20035;-94
2021/04/29 06:03:25;;;;;;;16.00;9.68;;;13.10;94.80;;;;;;6131199;23;20263;-94
2021/04/29 06:05:50;;;;;;;14.45;9.10;;;13.20;94.70;;;;;;6131326;23;20017;-94
2021/04/29 06:08:19;;;;;;;11.57;8.68;;;13.30;94.50;;;;;;6130925;23;20231;-94
2021/04/29 06:10:44;;;;;;;13.68;9.30;;;13.40;94.10;;;;;;6130818;23;20246;-95
2021/04/29 06:13:21;;;;;;;10.75;8.80;;;13.40;94.50;;;;;;6131197;23;20085;-95
2021/04/29 06:15:46;;;;;;;10.32;8.57;;;13.60;93.70;;;;;;6130899;23;20010;-94
2021/04/29 06:18:12;;;;;;;10.57;8.90;;;13.60;93.40;;;;;;6131852;23;20014;-94
2021/04/29 06:20:38;;;;;;;10.70;8.75;;;13.70;93.20;;;;;;6131122;23;20356;-94
2021/04/29 06:23:24;;;;;;;11.50;8.63;;;13.80;93.20;;;;;;6131676;23;20002;-96
2021/04/29 06:25:52;;;;;;;11.02;7.93;;;13.90;93.30;;;;;;6130573;23;20009;-95
2021/04/29 06:28:18;;;;;;;15.07;9.38;;;14.00;92.70;;;;;;6133236;23;20084;-94
2021/04/29 06:30:47;;;;;;;9.38;7.80;;;14.10;92.90;;;;;;6132098;23;20009;-95
2021/04/29 06:33:12;;;;;;;11.82;8.18;;;14.10;92.60;;;;;;6131063;23;20014;-95
2021/04/29 06:35:38;;;;;;;12.18;8.93;;;14.20;92.70;;;;;;6131630;23;20077;-95
2021/04/29 06:38:07;;;;;;;9.82;7.88;;;14.20;92.60;;;;;;6131137;23;20025;-96
2021/04/29 06:40:32;;;;;;;14.95;8.32;;;14.30;92.50;;;;;;6131553;23;20013;-95
2021/04/29 06:42:58;;;;;;;14.93;8.57;;;14.40;92.60;;;;;;6131087;23;20017;-95
2021/04/29 06:45:35;;;;;;;15.13;8.73;;;14.40;92.00;;;;;;6131390;23;20080;-96
2021/04/29 06:48:07;;;;;;;12.68;8.82;;;14.40;90.90;;;;;;6131313;23;20029;-96
2021/04/29 06:50:33;;;;;;;13.70;8.80;;;14.40;91.20;;;;;;6131310;23;20002;-95
2021/04/29 06:53:01;;;;;;;10.27;7.78;;;14.40;91.30;;;;;;6131695;23;20242;-95
2021/04/29 06:55:27;;;;;;;12.25;9.30;;;14.40;91.20;;;;;;6131415;23;20009;-94
2021/04/29 06:57:53;;;;;;;11.73;8.90;;;14.30;89.40;;;;;;6131131;23;20156;-95
2021/04/29 07:00:23;;;;;;;11.40;8.45;;;14.20;90.10;;;;;;6131764;23;20360;-95
2021/04/29 07:02:49;;;;;;;10.52;8.63;;;14.10;90.20;;;;;;6131093;23;20038;-95
2021/04/29 07:05:18;;;;;;;11.60;8.88;;;14.20;90.50;;;;;;6130714;23;20001;-96
2021/04/29 07:07:50;;;;;;;11.40;8.68;;;14.30;90.30;;;;;;6130650;23;20010;-96
2021/04/29 07:10:16;;;;;;;13.93;8.70;;;14.30;88.90;;;;;;6131077;23;20009;-92
2021/04/29 07:12:41;;;;;;;11.68;8.48;;;14.20;89.00;;;;;;6131271;23;20555;-94
2021/04/29 07:15:13;;;;;;;13.98;9.25;;;14.10;89.10;;;;;;6131322;23;20271;-94
2021/04/29 07:17:39;;;;;;;11.67;8.60;;;14.20;89.80;;;;;;6130904;23;20006;-95
2021/04/29 07:20:10;;;;;;;12.18;9.30;;;14.20;90.20;;;;;;6131019;23;20006;-95
2021/04/29 07:22:51;;;;;;;10.55;8.57;;;14.30;90.10;;;;;;6131491;23;20034;-96
2021/04/29 07:25:23;;;;;;;12.05;8.43;;;14.30;88.50;;;;;;6126617;23;20238;-94
2021/04/29 07:27:48;;;;;;;11.07;8.07;;;14.40;88.70;;;;;;6130813;23;20009;-94
2021/04/29 07:30:14;;;;;;;11.43;8.73;;;14.50;88.50;;;;;;6130807;23;19998;-96
2021/04/29 07:32:43;;;;;;;10.77;8.15;;;14.50;88.80;;;;;;6105509;23;20010;-95
2021/04/29 07:35:15;;;;;;;11.48;8.43;;;14.60;87.60;;;;;;6123964;23;20013;-95
2021/04/29 07:37:40;;;;;;;10.43;8.30;;;14.70;86.40;;;;;;6123356;23;20014;-93
2021/04/29 07:40:07;;;;;;;10.32;7.88;;;14.80;87.70;;;;;;6123929;23;20403;-93
2021/04/29 07:42:51;;;;;;;12.82;8.55;;;14.90;87.50;;;;;;6130368;23;20114;-96
2021/04/29 07:45:16;;;;;;;10.57;8.15;;;15.00;86.60;;;;;;6130903;23;20009;-94
2021/04/29 07:47:45;;;;;;;13.38;9.07;;;15.00;84.40;;;;;;6130780;23;20037;-93
2021/04/29 07:50:14;;;;;;;11.48;8.02;;;15.00;86.20;;;;;;6131287;23;20013;-94
2021/04/29 07:52:43;;;;;;;12.95;8.40;;;15.00;86.00;;;;;;6131179;23;20014;-94
2021/04/29 07:55:41;;;;;;;10.82;7.60;;;15.10;85.30;;;;;;6130965;23;20013;-96
2021/04/29 07:58:07;;;;;;;12.65;7.05;;;15.20;86.20;;;;;;6131280;23;20006;-93
2021/04/29 08:00:44;;;;;;;9.57;7.15;;;15.20;85.50;;;;;;6130874;23;20020;-94
2021/04/29 08:03:13;;;;;;;14.18;7.30;;;15.20;85.30;;;;;;6133269;23;20013;-90
2021/04/29 08:06:18;;;;;;;8.02;6.13;;;15.20;84.90;;;;;;6135110;23;20353;-93
2021/04/29 08:12:21;;;;;;;10.07;6.93;;;15.30;86.00;;;;;;6042850;23;20167;-95
2021/04/29 08:17:39;;;;;;;9.02;6.18;;;15.60;83.50;;;;;;5961367;23;20012;-93
2021/04/29 08:20:11;;;;;;;9.50;6.07;;;15.60;82.40;;;;;;6018410;23;20201;-93
2021/04/29 08:22:55;;;;;;;8.68;5.80;;;15.40;84.20;;;;;;6018502;23;20036;-92
2021/04/29 08:28:34;;;;;;;7.30;5.38;;;15.40;83.80;;;;;;6004330;23;20061;-93
2021/04/29 08:34:02;;;;;;;6.65;5.20;;;15.70;82.60;;;;;;5958796;24;20049;-95
2021/04/29 08:36:30;;;;;;;9.15;5.45;;;15.70;82.40;;;;;;6008333;23;20026;-95
2021/04/29 08:39:26;;;;;;;;;;;;;;;;;;;;;
2021/04/29 08:46:39;;;;;;;6.32;4.70;;;16.10;82.00;;;;;;5987981;24;20023;-96
2021/04/29 08:49:28;;;;;;;6.28;4.43;;;16.20;81.10;;;;;;5960616;24;20008;-94
2021/04/29 08:55:52;;;;;;;8.52;5.18;;;16.10;79.40;;;;;;5987880;24;20014;-95
2021/04/29 09:26:13;;;;;;;;;;;;;;;;;;;;;
2021/04/29 10:22:33;;;;;;;5.60;4.30;;;18.50;70.60;;;;;;6132989;23;20053;-95
2021/04/29 10:25:38;;;;;;;6.65;4.13;;;18.50;69.00;;;;;;6131785;23;20012;-94
2021/04/29 10:34:52;;;;;;;4.20;3.70;;;18.10;70.90;;;;;;6130720;23;20105;-88
2021/04/29 10:37:19;;;;;;;5.93;4.43;;;18.10;71.00;;;;;;6128810;23;20010;-89
2021/04/29 10:40:17;;;;;;;6.38;4.03;;;18.10;69.90;;;;;;6129312;23;20006;-91
2021/04/29 10:43:20;;;;;;;6.30;4.05;;;17.90;70.40;;;;;;6130907;23;20006;-92
2021/04/29 10:45:52;;;;;;;;;;;17.80;71.20;;;;;;6129016;23;20446;-90
2021/04/29 10:48:17;;;;;;;6.18;4.22;;;17.80;71.80;;;;;;6127563;23;20270;-91
2021/04/29 10:50:45;;;;;;;4.75;4.05;;;17.80;72.70;;;;;;6128158;23;20010;-89
2021/04/29 10:53:32;;;;;;;6.63;4.15;;;17.80;71.20;;;;;;6129401;23;20040;-89
2021/04/29 10:56:21;;;;;;;7.15;4.97;;;17.80;69.60;;;;;;6126263;23;20025;-89
2021/04/29 10:58:47;;;;;;;6.28;4.63;;;17.80;70.40;;;;;;6128299;23;20060;-92
2021/04/29 11:01:19;;;;;;;5.78;3.70;;;17.90;69.80;;;;;;6154024;23;20021;-91
2021/04/29 11:03:50;;;;;;;5.63;4.22;;;18.10;71.20;;;;;;6127310;23;20010;-91
2021/04/29 11:06:23;;;;;;;4.35;3.53;;;18.30;69.20;;;;;;6129172;23;20010;-89
2021/04/29 11:08:51;;;;;;;5.25;3.78;;;18.30;67.90;;;;;;6128849;23;20005;-91
2021/04/29 11:11:28;;;;;;;5.10;3.97;;;18.20;67.40;;;;;;6129431;23;20357;-91
2021/04/29 11:14:03;;;;;;;9.38;3.78;;;18.30;66.50;;;;;;6128871;23;20037;-89
2021/04/29 11:16:50;;;;;;;8.40;4.43;;;18.20;67.40;;;;;;6128348;23;20010;-90
2021/04/29 11:19:52;;;;;;;6.88;3.78;;;18.10;67.20;;;;;;6153182;23;20010;-90
2021/04/29 11:22:30;;;;;;;5.70;3.72;;;18.20;67.40;;;;;;6129272;23;20029;-88
2021/04/29 11:24:56;;;;;;;5.63;3.30;;;18.10;67.00;;;;;;6127176;23;20557;-90
2021/04/29 11:27:34;;;;;;;8.63;4.05;;;18.10;69.50;;;;;;6126691;23;20072;-89
2021/04/29 11:30:12;;;;;;;4.05;2.63;;;18.30;66.10;;;;;;6127321;23;20079;-90
2021/04/29 11:32:40;;;;;;;4.57;2.50;;;18.50;68.20;;;;;;6151985;23;20035;-90
2021/04/29 11:35:18;;;;;;;3.67;2.60;;;18.70;67.10;;;;;;6127240;23;20250;-88
2021/04/29 11:37:45;;;;;;;4.72;3.00;;;19.00;66.40;;;;;;6126055;23;20405;-89
2021/04/29 11:40:13;;;;;;;5.68;2.65;;;19.30;63.10;;;;;;6127326;23;20002;-89
2021/04/29 11:42:42;;;;;;;4.68;2.72;;;19.50;61.50;;;;;;6127464;23;20012;-89
2021/04/29 11:45:19;;;;;;;5.97;3.00;;;19.60;60.50;;;;;;6126659;23;20298;-89
2021/04/29 11:47:56;;;;;;;5.38;2.42;;;19.80;59.40;;;;;;6125296;23;20017;-90
2021/04/29 11:50:33;;;;;;;3.30;2.28;;;19.90;58.10;;;;;;6127427;23;20012;-89
2021/04/29 11:53:09;;;;;;;6.65;1.95;;;20.10;59.20;;;;;;6150959;23;20039;-90
2021/04/29 11:55:40;;;;;;;4.82;2.33;;;20.30;57.20;;;;;;6127196;23;20377;-91
2021/04/29 11:58:12;;;;;;;5.95;1.83;;;20.40;56.50;;;;;;6128163;23;20250;-91
2021/04/29 12:00:41;;;;;;;7.90;2.20;;;20.40;55.90;;;;;;6127000;23;20009;-89
2021/04/29 12:03:10;;;;;;;4.35;2.20;;;20.40;57.30;;;;;;6128018;23;20342;-90
2021/04/29 12:05:38;;;;;;;4.60;2.08;;;20.30;55.70;;;;;;6126790;23;20246;-90
2021/04/29 12:08:09;;;;;;;2.92;2.00;;;20.20;57.80;;;;;;6127269;23;19998;-90
2021/04/29 12:11:09;;;;;;;4.07;2.08;;;20.30;58.90;;;;;;6126631;23;20017;-89
2021/04/29 12:13:41;;;;;;;2.97;1.73;;;20.30;57.00;;;;;;6115410;23;20013;-89
2021/04/29 12:16:08;;;;;;;4.03;1.53;;;20.40;57.30;;;;;;6128788;23;20002;-89
2021/04/29 12:18:34;;;;;;;2.53;1.48;;;20.60;55.10;;;;;;6128538;23;20009;-90
2021/04/29 12:21:00;;;;;;;2.80;1.40;;;20.80;54.70;;;;;;6129688;23;20014;-90
2021/04/29 12:23:26;;;;;;;8.00;1.65;;;20.90;54.50;;;;;;6128134;23;20101;-90
2021/04/29 12:26:09;;;;;;;3.58;1.40;;;21.00;54.00;;;;;;6129109;23;20009;-90
2021/04/29 12:28:41;;;;;;;3.72;1.25;;;20.90;56.30;;;;;;6128710;23;20006;-91
2021/04/29 12:31:22;;;;;;;2.40;1.38;;;20.90;53.70;;;;;;6129994;23;19998;-90
2021/04/29 12:34:18;;;;;;;2.72;1.42;;;20.80;54.80;;;;;;6129297;23;20010;-91
2021/04/29 12:37:01;;;;;;;2.63;1.42;;;20.70;54.80;;;;;;6128494;23;20382;-89
2021/04/29 12:39:34;;;;;;;1.85;1.00;;;20.50;55.30;;;;;;6152694;23;20041;-90
2021/04/29 12:42:05;;;;;;;3.38;0.90;;;20.50;55.90;;;;;;6128281;23;20009;-90
2021/04/29 12:44:44;;;;;;;2.13;0.90;;;20.40;53.90;;;;;;6128013;23;20016;-89
2021/04/29 12:47:22;;;;;;;2.08;1.30;;;20.40;55.50;;;;;;6128656;23;20339;-90
2021/04/29 12:50:04;;;;;;;1.75;0.90;;;20.50;54.20;;;;;;6127334;23;20017;-89
2021/04/29 12:52:32;;;;;;;3.92;1.25;;;20.50;54.40;;;;;;6128107;23;20020;-89
2021/04/29 12:54:58;;;;;;;3.47;0.98;;;20.70;54.60;;;;;;6128109;23;20093;-90
2021/04/29 12:57:30;;;;;;;2.00;0.82;;;20.70;51.90;;;;;;6127902;23;20002;-90
2021/04/29 12:59:56;;;;;;;3.63;0.90;;;20.70;54.60;;;;;;6129502;23;20069;-90
2021/04/29 13:02:24;;;;;;;2.60;0.93;;;20.80;54.10;;;;;;6129105;23;20081;-91
2021/04/29 13:05:11;;;;;;;3.38;1.50;;;21.00;54.70;;;;;;6128200;23;20347;-87
2021/04/29 13:07:37;;;;;;;3.28;1.00;;;21.10;52.20;;;;;;6129258;23;20005;-90
2021/04/29 13:10:17;;;;;;;2.65;1.38;;;21.20;52.90;;;;;;6127938;23;20002;-91
2021/04/29 13:12:57;;;;;;;1.88;1.10;;;21.00;52.90;;;;;;6128905;23;20017;-89
2021/04/29 13:15:24;;;;;;;5.28;1.45;;;21.00;52.90;;;;;;6128344;23;20002;-90
2021/04/29 13:17:50;;;;;;;3.20;1.35;;;20.80;52.50;;;;;;6128533;23;20014;-89
2021/04/29 13:20:19;;;;;;;2.88;1.10;;;20.70;51.70;;;;;;6128618;23;20387;-90
2021/04/29 13:22:45;;;;;;;3.70;1.08;;;20.50;50.40;;;;;;6129751;23;20010;-90
2021/04/29 13:25:16;;;;;;;1.67;1.23;;;20.20;51.00;;;;;;6128374;23;20039;-90
2021/04/29 13:27:43;;;;;;;2.65;1.10;;;20.00;51.50;;;;;;6127838;23;20006;-89
2021/04/29 13:30:10;;;;;;;9.40;1.35;;;19.70;52.70;;;;;;6129013;23;20018;-89
2021/04/29 13:32:35;;;;;;;2.47;1.10;;;19.40;53.40;;;;;;6128280;23;20073;-88
2021/04/29 13:35:04;;;;;;;5.00;1.20;;;19.10;53.60;;;;;;6128443;23;20006;-90
2021/04/29 13:37:31;;;;;;;4.82;1.58;;;18.90;54.30;;;;;;6128690;23;20010;-88
2021/04/29 13:39:57;;;;;;;1.92;1.02;;;18.80;56.00;;;;;;6128450;23;20006;-89
2021/04/29 13:42:24;;;;;;;1.80;1.10;;;18.60;58.30;;;;;;6153344;23;20390;-90
2021/04/29 13:44:50;;;;;;;3.35;1.00;;;18.30;60.40;;;;;;6128702;23;20445;-90
2021/04/29 13:47:15;;;;;;;3.75;0.80;;;18.20;59.70;;;;;;6129326;23;20081;-89
2021/04/29 13:49:41;;;;;;;5.20;1.40;;;18.10;59.00;;;;;;6129839;23;20044;-89
2021/04/29 13:52:07;;;;;;;1.60;0.85;;;18.00;60.10;;;;;;6128430;23;20394;-88
2021/04/29 13:54:35;;;;;;;1.00;0.80;;;18.10;61.70;;;;;;6129154;23;20388;-90
2021/04/29 13:57:03;;;;;;;1.05;0.93;;;18.20;62.20;;;;;;6127525;23;20057;-89
2021/04/29 13:59:30;;;;;;;2.85;1.13;;;18.20;62.10;;;;;;6129115;23;20005;-90
2021/04/29 14:01:58;;;;;;;0.90;0.63;;;18.30;60.40;;;;;;6128789;23;20009;-89
2021/04/29 14:04:24;;;;;;;1.63;0.93;;;18.30;61.80;;;;;;6130232;23;20013;-91
2021/04/29 14:06:49;;;;;;;1.20;0.77;;;18.20;62.00;;;;;;6130435;23;20048;-90
2021/04/29 14:09:15;;;;;;;1.17;0.90;;;18.20;63.40;;;;;;6131594;23;20010;-90
2021/04/29 14:11:43;;;;;;;10.88;7.05;;;18.20;62.60;;;;;;6130106;23;20006;-89
2021/04/29 14:14:27;;;;;;;2.33;1.10;;;18.20;63.60;;;;;;6131413;23;20037;-92
2021/04/29 14:16:52;;;;;;;1.85;1.10;;;18.10;64.70;;;;;;6131660;23;20005;-93
2021/04/29 14:19:21;;;;;;;4.28;1.00;;;18.20;64.40;;;;;;6132740;23;20006;-89
2021/04/29 14:21:47;;;;;;;3.13;1.00;;;18.20;61.50;;;;;;6130973;23;20021;-90
2021/04/29 14:24:12;;;;;;;1.60;1.20;;;18.30;63.30;;;;;;6129971;23;20009;-91
2021/04/29 14:26:38;;;;;;;1.65;1.02;;;18.40;62.50;;;;;;6130471;23;20090;-89
2021/04/29 14:29:06;;;;;;;1.42;1.08;;;18.50;61.30;;;;;;6154759;23;20006;-89
2021/04/29 14:31:34;;;;;;;1.45;0.95;;;18.50;61.80;;;;;;6131265;23;20084;-90
2021/04/29 14:34:00;;;;;;;3.85;1.52;;;18.50;61.20;;;;;;6131096;23;20017;-91
2021/04/29 14:36:27;;;;;;;1.40;1.00;;;18.50;60.70;;;;;;6130014;23;20002;-89
2021/04/29 14:38:53;;;;;;;3.00;1.23;;;18.60;61.70;;;;;;6130422;23;20025;-90
2021/04/29 14:41:24;;;;;;;4.25;2.78;;;18.50;61.20;;;;;;6130590;23;20006;-90
2021/04/29 14:43:50;;;;;;;14.43;4.82;;;18.50;60.10;;;;;;6121608;23;20024;-91
2021/04/29 14:46:18;;;;;;;3.00;1.95;;;18.40;60.50;;;;;;6130526;23;20039;-92
2021/04/29 14:55:17;;;;;;;3.78;1.42;;;18.40;61.40;;;;;;6131301;23;20010;-87
2021/04/29 14:57:43;;;;;;;18.35;8.40;;;18.30;61.60;;;;;;6127634;23;20013;-84
2021/04/29 15:00:09;;;;;;;26.10;13.35;;;18.30;60.90;;;;;;6127376;23;20254;-87
2021/04/29 15:02:36;;;;;;;6.07;3.58;;;18.40;62.80;;;;;;6127931;23;20001;-87
2021/04/29 15:05:06;;;;;;;9.05;5.82;;;18.50;64.10;;;;;;6133593;23;20057;-94
2021/04/29 15:11:33;;;;;;;2.20;1.75;;;18.70;65.40;;;;;;6132184;23;20365;-92
2021/04/29 15:17:07;;;;;;;3.05;1.25;;;18.50;65.80;;;;;;6044377;23;20034;-93
2021/04/29 15:26:16;;;;;;;5.60;2.55;;;17.70;65.50;;;;;;6043274;23;20120;-94
2021/04/29 15:28:42;;;;;;;7.75;4.35;;;17.50;65.70;;;;;;6038341;23;20015;-93
2021/04/29 15:31:18;;;;;;;4.30;1.40;;;17.40;67.00;;;;;;6043937;23;20011;-93
2021/04/29 15:33:44;;;;;;;4.07;2.30;;;17.30;66.30;;;;;;6051403;23;20007;-93
2021/04/29 15:36:10;;;;;;;2.70;1.50;;;17.20;67.00;;;;;;6131873;23;20072;-90
2021/04/29 15:39:50;;;;;;;5.68;4.25;;;17.20;66.70;;;;;;6133195;23;20006;-94
2021/04/29 15:42:31;;;;;;;;;;;;;;;;;;;;;
2021/04/29 15:45:28;;;;;;;3.78;1.95;;;17.30;65.90;;;;;;6100492;23;20040;-95
2021/04/29 15:48:51;;;;;;;2.28;1.30;;;17.30;65.50;;;;;;6157263;23;20274;-96
2021/04/29 17:19:14;;;;;;;3.53;1.40;;;17.70;54.00;;;;;;6138758;23;20031;-91
2021/04/29 17:35:42;;;;;;;2.55;1.40;;;17.40;60.80;;;;;;5986530;24;20010;-95
2021/04/29 18:22:32;;;;;;;2.70;1.73;;;16.40;67.50;;;;;;5985964;24;20302;-92
2021/04/29 18:25:00;;;;;;;4.30;2.20;;;16.40;68.20;;;;;;5985875;24;20018;-92
2021/04/29 18:27:26;;;;;;;3.33;2.08;;;16.30;68.10;;;;;;5949728;24;579566;-92
2021/04/29 18:29:54;;;;;;;5.55;2.00;;;16.30;67.60;;;;;;5986496;24;20004;-91
2021/04/29 18:32:41;;;;;;;3.30;2.25;;;16.20;66.20;;;;;;6014518;23;20039;-93
2021/04/29 18:35:12;;;;;;;3.70;1.42;;;16.10;66.30;;;;;;6047833;23;20007;-94
2021/04/29 18:37:47;;;;;;;2.63;1.40;;;16.00;63.60;;;;;;6047621;23;20003;-94
2021/04/29 18:40:23;;;;;;;0.98;0.80;;;16.00;64.20;;;;;;6059968;23;20006;-93
2021/04/29 18:43:18;;;;;;;1.17;0.70;;;16.00;61.50;;;;;;6130919;23;20005;-94
2021/04/29 18:45:56;;;;;;;1.40;1.00;;;15.80;59.30;;;;;;6128679;23;20070;-93
2021/04/29 18:48:23;;;;;;;2.15;0.82;;;15.70;58.80;;;;;;6130882;23;20001;-92
2021/04/29 18:50:49;;;;;;;0.93;0.70;;;15.70;59.80;;;;;;6131449;23;20013;-90
2021/04/29 18:56:54;;;;;;;1.23;0.85;;;15.60;59.40;;;;;;6114483;23;20421;-94
2021/04/29 18:59:27;;;;;;;3.78;0.85;;;15.50;59.40;;;;;;6131481;23;20006;-92
2021/04/29 19:02:14;;;;;;;1.85;0.88;;;15.40;58.90;;;;;;6107773;23;20037;-93
2021/04/29 19:04:40;;;;;;;1.33;0.65;;;15.40;59.30;;;;;;6131651;23;20167;-93
2021/04/29 19:07:36;;;;;;;2.28;0.77;;;15.30;59.90;;;;;;6130362;23;20077;-94
2021/04/29 19:10:26;;;;;;;6.93;1.17;;;15.20;59.40;;;;;;6127733;23;20017;-94
2021/04/29 19:12:52;;;;;;;3.92;1.25;;;15.20;59.60;;;;;;6131338;23;20016;-93
2021/04/29 19:15:24;;;;;;;4.85;1.50;;;15.20;59.90;;;;;;6132130;23;20002;-92
2021/04/29 19:24:41;;;;;;;0.80;0.80;;;14.90;60.00;;;;;;6132579;23;20065;-95
2021/04/29 19:27:34;;;;;;;1.35;0.90;;;14.90;60.20;;;;;;6132353;23;20281;-94
2021/04/29 19:30:08;;;;;;;1.95;1.05;;;14.90;60.70;;;;;;6149208;23;20142;-91
2021/04/29 19:32:48;;;;;;;2.78;1.42;;;14.80;60.50;;;;;;6131781;23;20006;-94
2021/04/29 19:35:47;;;;;;;1.63;1.10;;;14.70;61.10;;;;;;6132376;23;20016;-94
2021/04/29 19:50:02;;;;;;;2.88;1.08;;;14.40;61.70;;;;;;6131895;23;20061;-96
2021/04/29 20:00:21;;;;;;;2.35;1.45;;;14.20;63.10;;;;;;5988003;23;20087;-95
2021/04/29 20:03:49;;;;;;;;;;;;;;;;;;;;;
2021/04/29 20:06:27;;;;;;;2.20;1.73;;;14.10;63.60;;;;;;5951547;24;20028;-94
2021/04/29 20:09:13;;;;;;;2.58;1.85;;;14.00;64.00;;;;;;5936047;24;20017;-94
2021/04/29 20:11:47;;;;;;;2.95;1.60;;;14.00;63.90;;;;;;5936184;24;20025;-93
2021/04/29 20:14:17;;;;;;;3.67;1.65;;;13.90;64.60;;;;;;5978968;23;20074;-94
2021/04/29 20:17:07;;;;;;;3.30;2.08;;;13.80;64.70;;;;;;6039205;23;20647;-94
2021/04/29 20:19:36;;;;;;;3.70;1.95;;;13.80;64.40;;;;;;6047750;23;20007;-92
2021/04/29 20:25:47;;;;;;;3.30;2.40;;;13.70;64.90;;;;;;6063098;23;20011;-92
2021/04/29 20:28:15;;;;;;;3.00;2.22;;;13.70;64.80;;;;;;6123080;23;20010;-94
2021/04/29 20:31:04;;;;;;;6.50;2.83;;;13.50;64.90;;;;;;6131693;23;20002;-95
2021/04/29 20:34:13;;;;;;;3.33;2.97;;;13.50;65.20;;;;;;6116947;23;20040;-94
2021/04/29 20:36:39;;;;;;;5.18;2.85;;;13.40;65.50;;;;;;6132408;23;20036;-94
2021/04/29 20:39:12;;;;;;;4.55;3.00;;;13.40;65.10;;;;;;6133031;23;20006;-95
2021/04/29 20:42:18;;;;;;;;;;;;;;;;;;;;;
2021/04/29 20:48:06;;;;;;;7.03;4.45;;;13.20;65.90;;;;;;6118190;23;20037;-94
2021/04/29 20:51:18;;;;;;;6.40;3.92;;;13.10;66.00;;;;;;6133119;23;20016;-94
2021/04/29 20:54:33;;;;;;;6.32;4.43;;;13.00;66.90;;;;;;6132549;23;20005;-95
2021/04/29 20:57:26;;;;;;;9.05;4.32;;;12.90;66.90;;;;;;6129616;23;20006;-95
2021/04/29 21:00:01;;;;;;;6.10;4.32;;;12.80;67.10;;;;;;6132986;23;20009;-94
2021/04/29 21:02:26;;;;;;;6.70;3.67;;;12.70;67.40;;;;;;6133455;23;20002;-94
2021/04/29 21:04:52;;;;;;;5.65;3.75;;;12.60;67.40;;;;;;6133200;23;20069;-93
2021/04/29 21:07:20;;;;;;;5.45;4.05;;;12.60;67.80;;;;;;6133088;23;20013;-96
2021/04/29 21:09:46;;;;;;;5.43;3.97;;;12.50;68.10;;;;;;6134051;23;20061;-91
2021/04/29 21:12:45;;;;;;;4.00;3.30;;;12.30;67.60;;;;;;6134509;23;20031;-94
2021/04/29 21:15:16;;;;;;;4.75;3.55;;;12.20;67.90;;;;;;6157928;23;20040;-94
2021/04/29 21:18:18;;;;;;;4.35;3.60;;;12.10;68.20;;;;;;6133206;23;20016;-94
2021/04/29 21:21:14;;;;;;;4.25;3.58;;;12.00;68.00;;;;;;6133238;23;20234;-94
2021/04/29 21:23:58;;;;;;;4.80;4.05;;;11.90;68.20;;;;;;6132519;23;20097;-95
2021/04/29 21:26:26;;;;;;;6.32;4.03;;;11.70;69.10;;;;;;6132521;23;20033;-94
2021/04/29 21:29:44;;;;;;;5.13;3.47;;;11.60;68.40;;;;;;6132677;23;20010;-93
2021/04/29 21:32:11;;;;;;;4.40;3.60;;;11.50;68.40;;;;;;6132682;23;20013;-93
2021/04/29 21:34:40;;;;;;;4.32;3.63;;;11.40;67.70;;;;;;6132666;23;20006;-93
2021/04/29 21:37:23;;;;;;;6.28;3.80;;;11.30;68.30;;;;;;6132039;23;20077;-93
2021/04/29 21:39:49;;;;;;;4.93;3.50;;;11.30;68.50;;;;;;6132705;23;20116;-90
2021/04/29 21:42:14;;;;;;;8.38;3.63;;;11.10;67.50;;;;;;6131926;23;20271;-93
2021/04/29 21:44:40;;;;;;;5.07;4.00;;;11.10;67.50;;;;;;6132542;23;20149;-94
2021/04/29 21:47:06;;;;;;;4.80;3.70;;;11.00;67.60;;;;;;6132500;23;20006;-93
2021/04/29 21:49:47;;;;;;;6.88;4.70;;;10.90;68.30;;;;;;6132467;23;20362;-95
2021/04/29 21:52:12;;;;;;;6.03;4.53;;;10.80;68.40;;;;;;6132408;23;19998;-93
2021/04/29 21:54:38;;;;;;;6.25;3.90;;;10.80;68.70;;;;;;6132432;23;20413;-92
2021/04/29 21:57:04;;;;;;;7.70;3.85;;;10.70;68.80;;;;;;6134109;23;20041;-95
2021/04/29 21:59:29;;;;;;;10.25;4.55;;;10.70;69.20;;;;;;6132670;23;20006;-94
2021/04/29 22:01:55;;;;;;;4.32;3.72;;;10.60;69.50;;;;;;6131991;23;20571;-94
2021/04/29 22:04:20;;;;;;;4.93;3.55;;;10.60;69.70;;;;;;6132081;23;20377;-92
2021/04/29 22:06:46;;;;;;;4.18;3.35;;;10.60;70.10;;;;;;6132537;23;20006;-95
2021/04/29 22:09:15;;;;;;;4.53;3.63;;;10.50;69.80;;;;;;6131860;23;20334;-94
2021/04/29 22:11:41;;;;;;;4.95;3.97;;;10.50;70.50;;;;;;6132309;23;20081;-95
2021/04/29 22:14:07;;;;;;;5.63;4.20;;;10.50;70.40;;;;;;6131434;23;20033;-95
2021/04/29 22:16:33;;;;;;;5.72;4.22;;;10.50;70.40;;;;;;6132083;23;20033;-94
2021/04/29 22:19:01;;;;;;;5.90;4.15;;;10.40;70.20;;;;;;6132038;23;20005;-96
2021/04/29 22:21:27;;;;;;;4.88;3.88;;;10.30;70.30;;;;;;6131916;23;20088;-96
2021/04/29 22:23:56;;;;;;;5.82;4.60;;;10.30;71.00;;;;;;6132089;23;20221;-95
2021/04/29 22:26:21;;;;;;;5.65;4.40;;;10.30;70.90;;;;;;6132278;23;20035;-95
2021/04/29 22:31:43;;;;;;;5.78;4.45;;;10.30;70.70;;;;;;6133005;23;20065;-95
2021/04/29 22:34:09;;;;;;;5.55;4.53;;;10.20;70.50;;;;;;6132468;23;20322;-95
2021/04/29 22:36:35;;;;;;;7.55;4.28;;;10.20;70.80;;;;;;6132594;23;20013;-95
2021/04/29 22:39:21;;;;;;;;;;;;;;;;;;;;;
2021/04/29 22:42:05;;;;;;;4.57;4.10;;;10.10;71.00;;;;;;6133742;23;20025;-96
2021/04/29 22:44:45;;;;;;;7.13;5.07;;;10.10;71.10;;;;;;6132291;23;20010;-96
2021/04/29 22:47:27;;;;;;;4.90;4.00;;;10.00;71.80;;;;;;6132426;23;20002;-94
2021/04/29 22:50:18;;;;;;;6.40;4.78;;;9.90;72.00;;;;;;6108227;23;20013;-92
2021/04/29 22:56:14;;;;;;;7.88;4.93;;;10.00;72.50;;;;;;6072368;23;20015;-94
2021/04/29 22:59:25;;;;;;;8.38;4.65;;;9.90;72.80;;;;;;6045910;23;20010;-95
2021/04/29 23:01:52;;;;;;;5.25;4.47;;;10.00;73.20;;;;;;6072867;23;20003;-94
2021/04/29 23:04:18;;;;;;;5.63;4.13;;;10.00;73.70;;;;;;6072531;23;20039;-94
2021/04/29 23:06:44;;;;;;;6.45;4.88;;;10.00;73.40;;;;;;6096636;23;20029;-94
2021/04/29 23:09:09;;;;;;;6.93;5.15;;;10.00;74.30;;;;;;6131899;23;20005;-95
2021/04/29 23:11:35;;;;;;;6.03;5.13;;;9.90;74.30;;;;;;6132006;23;20021;-94